Time;durP1;ratioP1;P1;durP2;ratioP2;P2;SDS_P1;SDS_P2;PMS_P1;PMS_P2;Temp;Humidity;BMP_temperature;BMP_pressure;BME280_temperature;BME280_humidity;BME280_pressure;Samples;Min_cycle;Max_cycle;Signal;HPM_P1;HPM_P2
2024/01/05 00:00:38;;;;;;;7.32;1.60;;;;;;;;;;4950763;29;20412;-78
2024/01/05 00:03:05;;;;;;;3.28;1.85;;;;;;;;;;4902737;29;20056;-79
2024/01/05 00:05:32;;;;;;;5.82;2.03;;;;;;;;;;4930217;29;20095;-78
2024/01/05 00:07:59;;;;;;;6.90;2.00;;;;;;;;;;4915283;29;20067;-78
2024/01/05 00:10:26;;;;;;;4.72;2.00;;;;;;;;;;4917468;29;20086;-78
2024/01/05 00:12:52;;;;;;;8.93;2.30;;;;;;;;;;4912023;29;20048;-79
2024/01/05 00:15:19;;;;;;;7.50;1.90;;;;;;;;;;4944364;29;20087;-78
2024/01/05 00:17:46;;;;;;;9.15;2.15;;;;;;;;;;4924107;29;20051;-78
2024/01/05 00:20:14;;;;;;;5.28;1.77;;;;;;;;;;4924384;29;20059;-79
2024/01/05 00:22:41;;;;;;;7.15;2.40;;;;;;;;;;4922122;29;20043;-79
2024/01/05 00:25:08;;;;;;;7.45;2.35;;;;;;;;;;4901026;29;20083;-79
2024/01/05 00:27:35;;;;;;;6.85;2.35;;;;;;;;;;4910442;29;20135;-79
2024/01/05 00:30:03;;;;;;;9.55;3.97;;;;;;;;;;4906426;29;20056;-80
2024/01/05 00:32:30;;;;;;;9.45;4.30;;;;;;;;;;4909303;29;20055;-80
2024/01/05 00:34:57;;;;;;;14.65;4.65;;;;;;;;;;4922398;29;20048;-80
2024/01/05 00:37:24;;;;;;;9.32;3.33;;;;;;;;;;4906305;29;20076;-79
2024/01/05 00:39:50;;;;;;;6.00;1.90;;;;;;;;;;4905768;29;20076;-79
2024/01/05 00:42:17;;;;;;;10.50;2.03;;;;;;;;;;4904729;29;20111;-79
2024/01/05 00:44:44;;;;;;;4.72;1.92;;;;;;;;;;4908686;29;20052;-79
2024/01/05 00:47:11;;;;;;;3.72;1.52;;;;;;;;;;4900411;29;20055;-79
2024/01/05 00:49:38;;;;;;;7.50;2.13;;;;;;;;;;4953819;29;20267;-78
2024/01/05 00:52:05;;;;;;;6.93;2.50;;;;;;;;;;4904551;29;20075;-78
2024/01/05 00:54:32;;;;;;;6.43;1.60;;;;;;;;;;4909472;29;20079;-79
2024/01/05 00:56:59;;;;;;;4.13;1.90;;;;;;;;;;4922506;29;20119;-78
2024/01/05 00:59:26;;;;;;;6.68;1.50;;;;;;;;;;4927382;29;20079;-79
2024/01/05 01:01:53;;;;;;;2.85;1.00;;;;;;;;;;4911035;29;20120;-79
2024/01/05 01:04:20;;;;;;;6.13;1.40;;;;;;;;;;4942869;29;20062;-79
2024/01/05 01:06:47;;;;;;;5.85;1.52;;;;;;;;;;4921564;29;20055;-79
2024/01/05 01:09:14;;;;;;;4.18;1.42;;;;;;;;;;4939025;29;20071;-80
2024/01/05 01:11:41;;;;;;;7.72;2.80;;;;;;;;;;4928211;29;20039;-78
2024/01/05 01:14:08;;;;;;;6.18;1.90;;;;;;;;;;4904893;29;20523;-80
2024/01/05 01:16:35;;;;;;;6.22;1.38;;;;;;;;;;4920774;29;20103;-80
2024/01/05 01:19:02;;;;;;;1.92;1.00;;;;;;;;;;4903231;29;20056;-80
2024/01/05 01:21:29;;;;;;;5.40;1.20;;;;;;;;;;4910978;29;20051;-78
2024/01/05 01:23:56;;;;;;;3.85;1.25;;;;;;;;;;4909402;29;20051;-79
2024/01/05 01:26:23;;;;;;;5.30;1.42;;;;;;;;;;4908841;29;20150;-79
2024/01/05 01:28:50;;;;;;;4.18;1.35;;;;;;;;;;4940246;29;20079;-78
2024/01/05 01:31:16;;;;;;;7.40;1.60;;;;;;;;;;4924965;29;20047;-78
2024/01/05 01:33:43;;;;;;;6.20;1.85;;;;;;;;;;4912225;29;20048;-78
2024/01/05 01:36:10;;;;;;;5.22;1.73;;;;;;;;;;4909801;29;20139;-78
2024/01/05 01:38:38;;;;;;;5.72;1.23;;;;;;;;;;4911725;29;20280;-79
2024/01/05 01:41:05;;;;;;;5.22;1.60;;;;;;;;;;4906452;29;20076;-79
2024/01/05 01:43:32;;;;;;;5.90;1.90;;;;;;;;;;4908651;29;20052;-78
2024/01/05 01:46:00;;;;;;;5.20;1.60;;;;;;;;;;4905471;29;20056;-79
2024/01/05 01:48:27;;;;;;;5.60;1.67;;;;;;;;;;4918031;29;20052;-79
2024/01/05 01:50:55;;;;;;;5.93;1.23;;;;;;;;;;4907290;29;20051;-79
2024/01/05 01:53:23;;;;;;;3.47;1.30;;;;;;;;;;4907240;29;20051;-79
2024/01/05 01:55:50;;;;;;;3.78;1.20;;;;;;;;;;4906183;29;20082;-78
2024/01/05 01:58:16;;;;;;;4.80;1.48;;;;;;;;;;4918667;29;20056;-79
2024/01/05 02:00:46;;;;;;;8.68;1.38;;;;;;;;;;4924767;29;20499;-79
2024/01/05 02:03:13;;;;;;;5.93;1.48;;;;;;;;;;4899159;29;20060;-79
2024/01/05 02:05:41;;;;;;;5.82;1.40;;;;;;;;;;4938333;29;20063;-77
2024/01/05 02:08:08;;;;;;;4.63;1.33;;;;;;;;;;4930737;29;20056;-79
2024/01/05 02:10:35;;;;;;;5.20;1.33;;;;;;;;;;4924162;29;20431;-78
2024/01/05 02:13:02;;;;;;;9.63;1.63;;;;;;;;;;4923737;29;20082;-79
2024/01/05 02:15:29;;;;;;;5.85;1.60;;;;;;;;;;4908214;29;20056;-78
2024/01/05 02:17:55;;;;;;;3.60;1.13;;;;;;;;;;4905175;29;20082;-79
2024/01/05 02:20:22;;;;;;;7.10;1.42;;;;;;;;;;4937340;29;20076;-79
2024/01/05 02:22:54;;;;;;;3.97;1.13;;;;;;;;;;4920953;29;20127;-79
2024/01/05 02:25:21;;;;;;;3.85;1.45;;;;;;;;;;4921432;29;20107;-79
2024/01/05 02:27:48;;;;;;;2.15;1.10;;;;;;;;;;4927657;29;20112;-76
2024/01/05 02:30:18;;;;;;;5.60;1.17;;;;;;;;;;4902441;29;20063;-77
2024/01/05 02:32:45;;;;;;;10.93;1.55;;;;;;;;;;4919591;29;20050;-78
2024/01/05 02:35:12;;;;;;;1.75;0.82;;;;;;;;;;4920346;29;20107;-78
2024/01/05 02:37:42;;;;;;;3.25;0.98;;;;;;;;;;4905475;29;20048;-79
2024/01/05 02:40:12;;;;;;;3.47;1.45;;;;;;;;;;4916746;29;20134;-80
2024/01/05 02:42:39;;;;;;;2.63;0.90;;;;;;;;;;4937830;29;20044;-79
2024/01/05 02:45:06;;;;;;;2.55;0.90;;;;;;;;;;4922706;29;20056;-80
2024/01/05 02:47:33;;;;;;;4.65;1.10;;;;;;;;;;4923239;29;20091;-79
2024/01/05 02:50:00;;;;;;;5.85;1.35;;;;;;;;;;4923762;29;20062;-79
2024/01/05 02:52:27;;;;;;;10.10;2.08;;;;;;;;;;4921919;29;20075;-79
2024/01/05 02:54:54;;;;;;;5.70;1.25;;;;;;;;;;4942104;29;20048;-80
2024/01/05 02:57:20;;;;;;;3.13;1.17;;;;;;;;;;4906241;29;20091;-80
2024/01/05 02:59:47;;;;;;;3.67;1.17;;;;;;;;;;4908976;29;20047;-79
2024/01/05 03:02:14;;;;;;;4.55;1.25;;;;;;;;;;4906617;29;20048;-80
2024/01/05 03:04:43;;;;;;;3.28;1.40;;;;;;;;;;4913120;29;20079;-79
2024/01/05 03:07:10;;;;;;;9.60;1.73;;;;;;;;;;4927132;29;20077;-78
2024/01/05 03:09:37;;;;;;;2.35;1.38;;;;;;;;;;4923430;29;20077;-78
2024/01/05 03:12:05;;;;;;;4.57;1.52;;;;;;;;;;4909226;29;20504;-79
2024/01/05 03:14:32;;;;;;;4.13;1.27;;;;;;;;;;4909275;29;20107;-79
2024/01/05 03:16:58;;;;;;;3.45;1.52;;;;;;;;;;4924793;29;20066;-79
2024/01/05 03:19:25;;;;;;;1.90;1.10;;;;;;;;;;4905403;29;20056;-78
2024/01/05 03:21:52;;;;;;;6.35;1.10;;;;;;;;;;4914380;29;20095;-78
2024/01/05 03:24:19;;;;;;;3.72;1.50;;;;;;;;;;4917947;29;20086;-77
2024/01/05 03:26:46;;;;;;;2.22;1.10;;;;;;;;;;4934128;29;20063;-78
2024/01/05 03:29:13;;;;;;;3.95;1.10;;;;;;;;;;4917132;29;20062;-79
2024/01/05 03:31:40;;;;;;;5.78;1.33;;;;;;;;;;4897340;29;20048;-77
2024/01/05 03:34:07;;;;;;;7.30;1.90;;;;;;;;;;4899146;29;20052;-77
2024/01/05 03:36:34;;;;;;;3.58;1.25;;;;;;;;;;4899034;29;20447;-77
2024/01/05 03:39:01;;;;;;;3.67;1.10;;;;;;;;;;4905826;29;20066;-77
2024/01/05 03:41:27;;;;;;;3.47;1.58;;;;;;;;;;4899751;29;20508;-77
2024/01/05 03:43:54;;;;;;;6.53;1.83;;;;;;;;;;4902209;29;20131;-78
2024/01/05 03:46:21;;;;;;;7.60;1.52;;;;;;;;;;4916416;29;20087;-78
2024/01/05 03:48:48;;;;;;;4.85;1.10;;;;;;;;;;4927028;29;20079;-76
2024/01/05 03:51:15;;;;;;;3.33;1.13;;;;;;;;;;4910549;29;20396;-78
2024/01/05 03:53:42;;;;;;;3.45;1.00;;;;;;;;;;4906723;29;20052;-76
2024/01/05 03:56:09;;;;;;;4.72;1.40;;;;;;;;;;4900075;29;20080;-77
2024/01/05 03:58:35;;;;;;;7.38;1.52;;;;;;;;;;4900906;29;20139;-76
2024/01/05 04:01:02;;;;;;;3.35;1.25;;;;;;;;;;4918377;29;20138;-77
2024/01/05 04:03:30;;;;;;;4.05;1.55;;;;;;;;;;4915488;29;20052;-77
2024/01/05 04:05:56;;;;;;;1.98;0.93;;;;;;;;;;4899113;29;20415;-77
2024/01/05 04:08:23;;;;;;;4.90;1.20;;;;;;;;;;4899564;29;20055;-77
2024/01/05 04:10:50;;;;;;;4.72;1.15;;;;;;;;;;4916904;29;20511;-76
2024/01/05 04:13:17;;;;;;;4.07;1.40;;;;;;;;;;4916179;29;20079;-77
2024/01/05 04:15:44;;;;;;;3.72;1.23;;;;;;;;;;4935239;29;20521;-77
2024/01/05 04:18:11;;;;;;;5.68;1.30;;;;;;;;;;4902129;29;20393;-77
2024/01/05 04:20:37;;;;;;;4.88;1.40;;;;;;;;;;4916421;29;20056;-77
2024/01/05 04:23:05;;;;;;;4.72;0.93;;;;;;;;;;4916541;29;20131;-77
2024/01/05 04:25:32;;;;;;;2.47;1.30;;;;;;;;;;4916617;29;20078;-77
2024/01/05 04:27:59;;;;;;;4.55;1.13;;;;;;;;;;4916649;29;20059;-77
2024/01/05 04:30:26;;;;;;;4.88;1.20;;;;;;;;;;4928439;29;20139;-77
2024/01/05 04:32:53;;;;;;;4.28;1.10;;;;;;;;;;4936629;29;20118;-77
2024/01/05 04:35:20;;;;;;;2.30;1.00;;;;;;;;;;4901489;29;20058;-80
2024/01/05 04:37:47;;;;;;;5.18;1.38;;;;;;;;;;4902333;29;20127;-77
2024/01/05 04:40:14;;;;;;;2.58;1.30;;;;;;;;;;4931916;29;20076;-77
2024/01/05 04:42:41;;;;;;;6.65;1.17;;;;;;;;;;4934599;28;20142;-76
2024/01/05 04:45:10;;;;;;;2.63;1.30;;;;;;;;;;4914681;29;20525;-77
2024/01/05 04:47:37;;;;;;;8.43;1.10;;;;;;;;;;4899391;29;20457;-76
2024/01/05 04:50:04;;;;;;;2.83;1.00;;;;;;;;;;4901178;29;20087;-77
2024/01/05 04:52:34;;;;;;;2.22;1.20;;;;;;;;;;4903314;29;20048;-77
2024/01/05 04:55:01;;;;;;;5.82;0.60;;;;;;;;;;4921196;29;20472;-77
2024/01/05 04:57:28;;;;;;;2.65;1.10;;;;;;;;;;4921263;29;20388;-78
2024/01/05 04:59:55;;;;;;;3.08;0.70;;;;;;;;;;4906324;29;20109;-77
2024/01/05 05:02:22;;;;;;;5.07;2.08;;;;;;;;;;4922398;29;20500;-78
2024/01/05 05:04:49;;;;;;;6.82;2.58;;;;;;;;;;4907321;29;20083;-78
2024/01/05 05:07:16;;;;;;;4.00;2.00;;;;;;;;;;4922863;29;20059;-78
2024/01/05 05:09:43;;;;;;;3.92;1.35;;;;;;;;;;4905237;29;20087;-78
2024/01/05 05:12:09;;;;;;;2.72;0.80;;;;;;;;;;4922761;29;20054;-79
2024/01/05 05:14:37;;;;;;;4.35;1.00;;;;;;;;;;4926114;29;20052;-79
2024/01/05 05:17:04;;;;;;;2.47;0.80;;;;;;;;;;4911439;29;20081;-79
2024/01/05 05:19:30;;;;;;;3.97;1.00;;;;;;;;;;4946945;29;20119;-79
2024/01/05 05:21:57;;;;;;;3.75;0.80;;;;;;;;;;4911781;29;20134;-78
2024/01/05 05:24:24;;;;;;;3.92;1.42;;;;;;;;;;4940295;29;20090;-78
2024/01/05 05:26:51;;;;;;;2.88;1.08;;;;;;;;;;4908745;29;20512;-77
2024/01/05 05:29:18;;;;;;;6.00;1.13;;;;;;;;;;4905713;29;20131;-78
2024/01/05 05:31:45;;;;;;;2.90;0.60;;;;;;;;;;4904982;29;20059;-78
2024/01/05 05:34:12;;;;;;;1.60;0.60;;;;;;;;;;4906338;29;20122;-78
2024/01/05 05:36:39;;;;;;;2.90;0.88;;;;;;;;;;4933519;29;20082;-78
2024/01/05 05:39:06;;;;;;;1.67;1.00;;;;;;;;;;4910779;29;20059;-78
2024/01/05 05:41:33;;;;;;;3.13;0.68;;;;;;;;;;4908412;29;20051;-77
2024/01/05 05:43:59;;;;;;;2.70;1.48;;;;;;;;;;4908620;29;20519;-76
2024/01/05 05:46:26;;;;;;;4.38;1.10;;;;;;;;;;4923865;29;20111;-78
2024/01/05 05:48:53;;;;;;;4.80;0.77;;;;;;;;;;4901468;29;20091;-78
2024/01/05 05:51:20;;;;;;;2.92;0.80;;;;;;;;;;4916421;29;20135;-78
2024/01/05 05:53:47;;;;;;;2.70;0.70;;;;;;;;;;4917713;29;20052;-77
2024/01/05 05:56:14;;;;;;;6.18;0.73;;;;;;;;;;4916803;29;20083;-77
2024/01/05 05:58:41;;;;;;;2.05;0.70;;;;;;;;;;4937760;29;20138;-79
2024/01/05 06:01:09;;;;;;;1.92;0.63;;;;;;;;;;4920939;29;20558;-78
2024/01/05 06:03:36;;;;;;;1.92;0.88;;;;;;;;;;4904328;29;20081;-79
2024/01/05 06:06:04;;;;;;;1.88;0.55;;;;;;;;;;4921486;29;20055;-78
2024/01/05 06:08:31;;;;;;;2.10;0.60;;;;;;;;;;4903569;29;20079;-78
2024/01/05 06:10:57;;;;;;;9.35;1.30;;;;;;;;;;4932374;29;20078;-79
2024/01/05 06:13:24;;;;;;;2.78;1.02;;;;;;;;;;4915830;29;20086;-78
2024/01/05 06:15:51;;;;;;;2.95;0.90;;;;;;;;;;4922758;29;20090;-79
2024/01/05 06:18:18;;;;;;;3.42;0.82;;;;;;;;;;4905237;29;20126;-77
2024/01/05 06:20:45;;;;;;;3.58;1.00;;;;;;;;;;4952446;28;20055;-80
2024/01/05 06:23:11;;;;;;;4.75;0.93;;;;;;;;;;4917052;29;20058;-80
2024/01/05 06:25:42;;;;;;;2.00;1.42;;;;;;;;;;4911496;29;20424;-80
2024/01/05 06:28:09;;;;;;;2.47;1.02;;;;;;;;;;4917142;29;20084;-79
2024/01/05 06:30:36;;;;;;;2.80;1.50;;;;;;;;;;4916947;29;20079;-79
2024/01/05 06:33:03;;;;;;;4.70;1.40;;;;;;;;;;4916114;29;20052;-80
2024/01/05 06:35:30;;;;;;;3.70;1.50;;;;;;;;;;4938856;29;20516;-78
2024/01/05 06:37:57;;;;;;;2.20;0.90;;;;;;;;;;4913838;29;20078;-78
2024/01/05 06:40:24;;;;;;;1.75;0.95;;;;;;;;;;4916132;29;20055;-79
2024/01/05 06:42:50;;;;;;;7.85;1.38;;;;;;;;;;4914687;29;20054;-79
2024/01/05 06:45:17;;;;;;;2.47;0.93;;;;;;;;;;4923082;29;20079;-80
2024/01/05 06:47:44;;;;;;;3.08;1.17;;;;;;;;;;4933268;29;20054;-78
2024/01/05 06:50:11;;;;;;;2.35;0.93;;;;;;;;;;4934263;29;20139;-80
2024/01/05 06:52:38;;;;;;;1.67;0.90;;;;;;;;;;4917211;29;20052;-79
2024/01/05 06:55:05;;;;;;;4.65;1.08;;;;;;;;;;4917829;29;20058;-79
2024/01/05 06:57:35;;;;;;;3.70;1.40;;;;;;;;;;4899952;29;20120;-77
2024/01/05 07:00:09;;;;;;;2.67;0.80;;;;;;;;;;4914510;29;20079;-80
2024/01/05 07:02:36;;;;;;;4.40;1.10;;;;;;;;;;4929170;29;20054;-80
2024/01/05 07:05:04;;;;;;;3.63;1.15;;;;;;;;;;4901124;29;20067;-79
2024/01/05 07:07:30;;;;;;;2.50;0.82;;;;;;;;;;4918068;29;20052;-80
2024/01/05 07:09:58;;;;;;;4.57;0.85;;;;;;;;;;4901840;29;20555;-80
2024/01/05 07:12:28;;;;;;;3.80;1.40;;;;;;;;;;4914323;29;20134;-80
2024/01/05 07:14:55;;;;;;;3.00;1.23;;;;;;;;;;4916928;29;20116;-80
2024/01/05 07:17:22;;;;;;;2.47;1.02;;;;;;;;;;4930467;29;20087;-81
2024/01/05 07:19:48;;;;;;;6.35;1.58;;;;;;;;;;4901510;29;20060;-81
2024/01/05 07:22:15;;;;;;;4.13;0.90;;;;;;;;;;4900764;29;20075;-81
2024/01/05 07:24:42;;;;;;;4.18;1.10;;;;;;;;;;4903064;29;20048;-80
2024/01/05 07:27:10;;;;;;;3.05;1.00;;;;;;;;;;4899916;29;20056;-80
2024/01/05 07:29:37;;;;;;;2.97;1.40;;;;;;;;;;4915645;29;20056;-80
2024/01/05 07:32:04;;;;;;;2.15;1.00;;;;;;;;;;4916177;29;20055;-80
2024/01/05 07:34:31;;;;;;;3.60;1.52;;;;;;;;;;4934374;29;20535;-81
2024/01/05 07:36:58;;;;;;;2.95;1.02;;;;;;;;;;4903449;29;20967;-80
2024/01/05 07:39:25;;;;;;;3.22;1.30;;;;;;;;;;4901707;29;20071;-80
2024/01/05 07:41:52;;;;;;;2.20;1.30;;;;;;;;;;4931275;29;20139;-81
2024/01/05 07:44:19;;;;;;;3.55;1.13;;;;;;;;;;4900044;29;20578;-78
2024/01/05 07:46:46;;;;;;;3.20;0.98;;;;;;;;;;4899186;29;20084;-78
2024/01/05 07:49:13;;;;;;;4.40;1.20;;;;;;;;;;4895358;29;20127;-78
2024/01/05 07:51:40;;;;;;;5.55;1.17;;;;;;;;;;4911628;29;20111;-79
2024/01/05 07:54:08;;;;;;;4.43;1.58;;;;;;;;;;4900064;29;20119;-79
2024/01/05 07:56:38;;;;;;;6.90;1.58;;;;;;;;;;4899133;29;20064;-78
2024/01/05 07:59:05;;;;;;;4.30;1.50;;;;;;;;;;4917351;29;20518;-80
2024/01/05 08:01:32;;;;;;;5.20;1.70;;;;;;;;;;4903536;29;20065;-79
2024/01/05 08:03:58;;;;;;;2.67;1.20;;;;;;;;;;4905874;29;20076;-79
2024/01/05 08:06:25;;;;;;;3.75;1.48;;;;;;;;;;4902555;29;20228;-79
2024/01/05 08:08:52;;;;;;;5.97;1.90;;;;;;;;;;4933943;29;20044;-78
2024/01/05 08:11:19;;;;;;;5.13;1.55;;;;;;;;;;4900037;29;20082;-79
2024/01/05 08:13:46;;;;;;;1.40;1.10;;;;;;;;;;4901088;29;20571;-77
2024/01/05 08:16:13;;;;;;;2.58;1.25;;;;;;;;;;4902553;29;20136;-78
2024/01/05 08:18:41;;;;;;;2.60;1.05;;;;;;;;;;4899029;29;20048;-78
2024/01/05 08:21:08;;;;;;;2.13;1.17;;;;;;;;;;4891137;29;22024;-80
2024/01/05 08:23:36;;;;;;;7.35;1.05;;;;;;;;;;4924971;29;20048;-79
2024/01/05 08:26:07;;;;;;;4.18;1.10;;;;;;;;;;4910906;29;20058;-77
2024/01/05 08:28:34;;;;;;;3.83;1.52;;;;;;;;;;4918255;29;20109;-76
2024/01/05 08:31:01;;;;;;;4.10;1.20;;;;;;;;;;4917420;29;21229;-77
2024/01/05 08:33:28;;;;;;;4.05;0.95;;;;;;;;;;4917678;29;20515;-77
2024/01/05 08:35:55;;;;;;;4.97;1.10;;;;;;;;;;4931719;29;20055;-77
2024/01/05 08:38:22;;;;;;;2.95;1.10;;;;;;;;;;4919372;29;20122;-78
2024/01/05 08:40:50;;;;;;;2.90;1.38;;;;;;;;;;4917317;29;20138;-77
2024/01/05 08:43:17;;;;;;;5.35;1.20;;;;;;;;;;4966808;28;20047;-77
2024/01/05 08:45:45;;;;;;;2.90;0.93;;;;;;;;;;4903891;29;20089;-78
2024/01/05 08:48:15;;;;;;;3.30;1.40;;;;;;;;;;4906660;29;20083;-78
2024/01/05 08:50:42;;;;;;;4.85;1.52;;;;;;;;;;4921779;29;20047;-79
2024/01/05 08:53:09;;;;;;;2.40;1.20;;;;;;;;;;4904947;29;20087;-78
2024/01/05 08:55:36;;;;;;;2.38;1.00;;;;;;;;;;4918892;29;20047;-77
2024/01/05 08:58:04;;;;;;;3.03;1.25;;;;;;;;;;4918872;29;20138;-77
2024/01/05 09:00:31;;;;;;;8.20;1.75;;;;;;;;;;4913210;29;20078;-77
2024/01/05 09:02:58;;;;;;;7.68;1.70;;;;;;;;;;4918656;29;20051;-79
2024/01/05 09:05:25;;;;;;;5.80;1.40;;;;;;;;;;4915857;29;21878;-77
2024/01/05 09:07:53;;;;;;;3.88;1.15;;;;;;;;;;4945416;29;20052;-78
2024/01/05 09:10:20;;;;;;;3.15;1.27;;;;;;;;;;4899899;29;20051;-78
2024/01/05 09:12:47;;;;;;;3.63;1.33;;;;;;;;;;4928469;29;20091;-78
2024/01/05 09:15:15;;;;;;;3.05;1.30;;;;;;;;;;4911990;29;20120;-77
2024/01/05 09:17:43;;;;;;;3.30;1.63;;;;;;;;;;4947430;29;20155;-78
2024/01/05 09:20:12;;;;;;;3.53;1.10;;;;;;;;;;4915905;29;20048;-78
2024/01/05 09:22:39;;;;;;;3.38;1.20;;;;;;;;;;4916285;29;20066;-77
2024/01/05 09:25:08;;;;;;;2.45;1.23;;;;;;;;;;4896246;29;20107;-81
2024/01/05 09:27:35;;;;;;;3.92;0.90;;;;;;;;;;4932591;29;20064;-81
2024/01/05 09:30:03;;;;;;;2.60;1.20;;;;;;;;;;4916404;29;20059;-81
2024/01/05 09:32:30;;;;;;;2.53;1.00;;;;;;;;;;4915723;29;20052;-81
2024/01/05 09:34:57;;;;;;;2.38;1.20;;;;;;;;;;4917988;29;20449;-78
2024/01/05 09:37:24;;;;;;;1.08;0.77;;;;;;;;;;4929660;29;20079;-77
2024/01/05 09:39:52;;;;;;;4.25;1.83;;;;;;;;;;4918693;29;20086;-78
2024/01/05 09:42:19;;;;;;;5.10;1.42;;;;;;;;;;4918043;29;20119;-78
2024/01/05 09:44:46;;;;;;;2.55;1.05;;;;;;;;;;4902876;29;20052;-76
2024/01/05 09:47:18;;;;;;;2.40;1.00;;;;;;;;;;4932219;29;20047;-77
2024/01/05 09:49:45;;;;;;;5.85;1.85;;;;;;;;;;4931010;29;20130;-77
2024/01/05 09:52:12;;;;;;;2.72;1.10;;;;;;;;;;4918608;29;20048;-76
2024/01/05 09:54:41;;;;;;;3.42;1.20;;;;;;;;;;4917444;29;20117;-77
2024/01/05 09:57:10;;;;;;;3.42;1.30;;;;;;;;;;4919808;29;20130;-76
2024/01/05 09:59:40;;;;;;;3.83;1.42;;;;;;;;;;4916987;29;20407;-77
2024/01/05 10:02:11;;;;;;;5.43;1.40;;;;;;;;;;4931887;29;20699;-77
2024/01/05 10:04:39;;;;;;;3.85;1.20;;;;;;;;;;4933985;28;20124;-76
2024/01/05 10:07:06;;;;;;;2.25;1.42;;;;;;;;;;4949048;29;20059;-77
2024/01/05 10:09:49;;;;;;;4.13;1.75;;;;;;;;;;4902117;29;20480;-77
2024/01/05 10:12:18;;;;;;;2.55;1.08;;;;;;;;;;4934294;29;20262;-78
2024/01/05 10:14:47;;;;;;;8.43;1.85;;;;;;;;;;4922841;29;20038;-75
2024/01/05 10:17:15;;;;;;;4.88;1.50;;;;;;;;;;4955848;29;20072;-75
2024/01/05 10:19:43;;;;;;;4.13;1.20;;;;;;;;;;4939314;29;20167;-76
2024/01/05 10:22:12;;;;;;;3.65;1.52;;;;;;;;;;4960268;29;20044;-76
2024/01/05 10:24:40;;;;;;;5.03;1.48;;;;;;;;;;4934173;29;20040;-77
2024/01/05 10:27:09;;;;;;;2.35;1.52;;;;;;;;;;4918663;29;20055;-77
2024/01/05 10:29:43;;;;;;;2.88;1.20;;;;;;;;;;4917910;29;20138;-77
2024/01/05 10:32:19;;;;;;;2.45;1.35;;;;;;;;;;4915218;29;20582;-78
2024/01/05 10:34:49;;;;;;;2.47;1.40;;;;;;;;;;4947616;29;20047;-77
2024/01/05 10:37:19;;;;;;;4.13;1.40;;;;;;;;;;4914405;29;20063;-76
2024/01/05 10:39:51;;;;;;;5.68;1.75;;;;;;;;;;4902523;29;20052;-77
2024/01/05 10:42:26;;;;;;;2.47;1.27;;;;;;;;;;4917373;29;20859;-78
2024/01/05 10:44:56;;;;;;;5.70;1.52;;;;;;;;;;4900813;29;20265;-77
2024/01/05 10:47:26;;;;;;;3.47;1.50;;;;;;;;;;4932229;29;20047;-77
2024/01/05 10:49:55;;;;;;;2.45;1.70;;;;;;;;;;4934017;29;20058;-77
2024/01/05 10:52:30;;;;;;;4.13;1.50;;;;;;;;;;4920574;29;20086;-77
2024/01/05 10:55:02;;;;;;;4.10;1.80;;;;;;;;;;4917550;29;20051;-77
2024/01/05 10:57:31;;;;;;;4.00;1.65;;;;;;;;;;4922772;29;20047;-77
2024/01/05 10:59:58;;;;;;;3.97;1.80;;;;;;;;;;4946315;29;20058;-77
2024/01/05 11:02:43;;;;;;;5.72;1.42;;;;;;;;;;4929722;29;20126;-77
2024/01/05 11:05:11;;;;;;;5.20;1.73;;;;;;;;;;4933519;29;20467;-76
2024/01/05 11:07:40;;;;;;;3.17;1.40;;;;;;;;;;4932751;29;20130;-77
2024/01/05 11:10:32;;;;;;;3.95;1.40;;;;;;;;;;4935498;29;20134;-77
2024/01/05 11:13:20;;;;;;;4.90;1.80;;;;;;;;;;4919119;29;20150;-77
2024/01/05 11:16:04;;;;;;;4.05;1.50;;;;;;;;;;4949178;29;20133;-77
2024/01/05 11:18:50;;;;;;;5.30;1.75;;;;;;;;;;4935072;29;20126;-77
2024/01/05 11:21:38;;;;;;;5.05;1.58;;;;;;;;;;4950698;29;20139;-78
2024/01/05 11:24:05;;;;;;;5.80;1.88;;;;;;;;;;4951561;29;20055;-78
2024/01/05 11:26:42;;;;;;;5.05;1.67;;;;;;;;;;4936333;28;20499;-78
2024/01/05 11:29:15;;;;;;;4.65;2.20;;;;;;;;;;4934121;29;20061;-78
2024/01/05 11:31:44;;;;;;;;;;;;;;;;;;4935718;29;20050;-78
2024/01/05 11:34:34;;;;;;;5.15;1.88;;;;;;;;;;4951929;29;19926;-77
2024/01/05 11:37:04;;;;;;;3.40;1.40;;;;;;;;;;4934411;29;20133;-77
2024/01/05 11:39:47;;;;;;;3.42;1.27;;;;;;;;;;4916198;29;20071;-78
2024/01/05 11:42:24;;;;;;;4.20;1.67;;;;;;;;;;4948410;29;20063;-77
2024/01/05 11:44:52;;;;;;;4.45;1.90;;;;;;;;;;4946927;29;20043;-77
2024/01/05 11:47:44;;;;;;;4.53;1.67;;;;;;;;;;4934898;29;20526;-77
2024/01/05 11:50:28;;;;;;;5.28;1.67;;;;;;;;;;4933830;29;20419;-77
2024/01/05 11:53:22;;;;;;;4.32;1.40;;;;;;;;;;4934476;29;20044;-78
2024/01/05 11:55:51;;;;;;;2.50;1.20;;;;;;;;;;4920224;29;20062;-77
2024/01/05 11:58:18;;;;;;;4.03;1.60;;;;;;;;;;4934923;29;20058;-78
2024/01/05 12:00:46;;;;;;;4.63;1.50;;;;;;;;;;4934154;29;20098;-77
2024/01/05 12:03:14;;;;;;;4.35;1.90;;;;;;;;;;4932890;29;20060;-78
2024/01/05 12:05:43;;;;;;;6.82;1.95;;;;;;;;;;4935575;29;20047;-78
2024/01/05 12:08:12;;;;;;;3.97;1.50;;;;;;;;;;4913874;29;20056;-78
2024/01/05 12:10:39;;;;;;;3.00;1.63;;;;;;;;;;4934860;29;20083;-77
2024/01/05 12:13:06;;;;;;;5.35;1.63;;;;;;;;;;4935405;29;20063;-78
2024/01/05 12:15:34;;;;;;;4.60;1.83;;;;;;;;;;4935014;28;20415;-77
2024/01/05 12:18:06;;;;;;;5.28;1.90;;;;;;;;;;4931594;29;20090;-77
2024/01/05 12:20:45;;;;;;;4.18;1.50;;;;;;;;;;4936418;29;20126;-77
2024/01/05 12:23:12;;;;;;;4.90;1.80;;;;;;;;;;4935138;29;20091;-77
2024/01/05 12:25:41;;;;;;;2.67;1.65;;;;;;;;;;4914475;29;20058;-76
2024/01/05 12:28:09;;;;;;;3.78;1.92;;;;;;;;;;4931920;29;20059;-77
2024/01/05 12:30:36;;;;;;;4.53;1.67;;;;;;;;;;4916305;29;20105;-77
2024/01/05 12:33:04;;;;;;;3.08;1.85;;;;;;;;;;4935319;29;20063;-78
2024/01/05 12:35:31;;;;;;;4.57;2.00;;;;;;;;;;4919371;29;20040;-78
2024/01/05 12:38:00;;;;;;;5.78;2.55;;;;;;;;;;4931228;29;20055;-77
2024/01/05 12:40:28;;;;;;;8.73;2.47;;;;;;;;;;4919617;29;20052;-78
2024/01/05 12:42:55;;;;;;;7.25;2.65;;;;;;;;;;4917649;29;20047;-77
2024/01/05 12:45:25;;;;;;;6.93;2.03;;;;;;;;;;4949691;29;20130;-77
2024/01/05 12:47:52;;;;;;;6.45;2.47;;;;;;;;;;4952351;29;20121;-78
2024/01/05 12:50:26;;;;;;;6.38;2.25;;;;;;;;;;4932818;29;20052;-78
2024/01/05 12:52:53;;;;;;;4.68;2.38;;;;;;;;;;4917446;29;20129;-78
2024/01/05 12:55:32;;;;;;;7.57;2.25;;;;;;;;;;4948954;29;20075;-78
2024/01/05 12:58:03;;;;;;;6.15;2.15;;;;;;;;;;4934436;29;20058;-77
2024/01/05 13:00:31;;;;;;;5.30;2.33;;;;;;;;;;4918398;29;20052;-77
2024/01/05 13:02:58;;;;;;;4.22;1.90;;;;;;;;;;4919024;29;20047;-77
2024/01/05 13:05:25;;;;;;;4.70;2.40;;;;;;;;;;4950074;29;20050;-77
2024/01/05 13:07:53;;;;;;;5.00;2.08;;;;;;;;;;4950476;29;20158;-78
2024/01/05 13:10:25;;;;;;;4.28;1.65;;;;;;;;;;4919248;29;20051;-76
2024/01/05 13:12:52;;;;;;;4.30;1.70;;;;;;;;;;4917690;29;20111;-77
2024/01/05 13:15:20;;;;;;;2.80;1.55;;;;;;;;;;4937089;29;20043;-77
2024/01/05 13:17:51;;;;;;;5.50;1.80;;;;;;;;;;4938356;29;20051;-77
2024/01/05 13:20:24;;;;;;;6.20;1.90;;;;;;;;;;4936820;29;20055;-77
2024/01/05 13:22:52;;;;;;;3.92;2.20;;;;;;;;;;4923596;29;20054;-78
2024/01/05 13:25:20;;;;;;;5.60;1.70;;;;;;;;;;4935858;29;20051;-77
2024/01/05 13:27:47;;;;;;;4.43;1.92;;;;;;;;;;4929311;29;20059;-77
2024/01/05 13:30:14;;;;;;;3.85;2.10;;;;;;;;;;4921972;29;20097;-76
2024/01/05 13:32:48;;;;;;;5.22;2.00;;;;;;;;;;4938053;29;20077;-77
2024/01/05 13:35:15;;;;;;;4.38;2.17;;;;;;;;;;4953279;28;20047;-77
2024/01/05 13:37:43;;;;;;;3.78;1.98;;;;;;;;;;4921445;29;20051;-77
2024/01/05 13:40:11;;;;;;;3.47;1.75;;;;;;;;;;4938483;29;20054;-77
2024/01/05 13:42:39;;;;;;;4.50;2.20;;;;;;;;;;4967686;28;20126;-76
2024/01/05 13:45:06;;;;;;;6.20;2.30;;;;;;;;;;4961796;29;20055;-75
2024/01/05 13:47:34;;;;;;;6.82;2.30;;;;;;;;;;4957392;29;20039;-75
2024/01/05 13:50:02;;;;;;;5.63;2.00;;;;;;;;;;4941694;29;20051;-78
2024/01/05 13:52:30;;;;;;;4.05;2.38;;;;;;;;;;4942310;29;20121;-78
2024/01/05 13:54:57;;;;;;;4.53;1.58;;;;;;;;;;4919269;29;20143;-78
2024/01/05 13:57:24;;;;;;;5.82;2.03;;;;;;;;;;4955510;29;20918;-78
2024/01/05 13:59:51;;;;;;;15.88;5.60;;;;;;;;;;4937634;29;20134;-83
2024/01/05 14:02:19;;;;;;;7.45;4.00;;;;;;;;;;4939075;29;20087;-78
2024/01/05 14:04:49;;;;;;;3.88;1.85;;;;;;;;;;4940039;29;20051;-78
2024/01/05 14:07:16;;;;;;;6.13;3.30;;;;;;;;;;4937283;29;20423;-79
2024/01/05 14:09:43;;;;;;;3.08;1.95;;;;;;;;;;4921259;29;20050;-78
2024/01/05 14:12:11;;;;;;;6.40;2.80;;;;;;;;;;4952697;29;20062;-78
2024/01/05 14:14:38;;;;;;;5.03;2.10;;;;;;;;;;4939072;29;20047;-78
2024/01/05 14:17:05;;;;;;;4.35;2.00;;;;;;;;;;4946238;29;20059;-78
2024/01/05 14:19:33;;;;;;;5.68;2.40;;;;;;;;;;4926370;29;20466;-78
2024/01/05 14:22:00;;;;;;;5.63;2.08;;;;;;;;;;4923257;29;20058;-77
2024/01/05 14:24:27;;;;;;;5.57;2.20;;;;;;;;;;4930518;29;20053;-78
2024/01/05 14:26:53;;;;;;;4.03;2.60;;;;;;;;;;4939497;29;20061;-78
2024/01/05 14:29:21;;;;;;;4.13;2.30;;;;;;;;;;4940541;29;20079;-78
2024/01/05 14:31:51;;;;;;;5.25;2.47;;;;;;;;;;4955076;29;20051;-78
2024/01/05 14:34:17;;;;;;;4.00;2.55;;;;;;;;;;4929205;29;20063;-78
2024/01/05 14:36:44;;;;;;;5.43;2.10;;;;;;;;;;4937825;29;20676;-79
2024/01/05 14:39:11;;;;;;;5.82;2.97;;;;;;;;;;4948860;29;20047;-79
2024/01/05 14:41:38;;;;;;;5.25;2.95;;;;;;;;;;4965071;29;20058;-78
2024/01/05 14:44:05;;;;;;;7.30;2.67;;;;;;;;;;4949573;29;20101;-79
2024/01/05 14:46:32;;;;;;;4.85;2.40;;;;;;;;;;4949697;29;20043;-78
2024/01/05 14:48:59;;;;;;;6.35;2.58;;;;;;;;;;4931497;29;20113;-77